createdAt,value
2017-09-08T00:00:55.231Z,1006.20
2017-09-08T00:01:55.226Z,1006.19
2017-09-08T00:02:55.220Z,1006.20
2017-09-08T00:03:55.216Z,1006.18
2017-09-08T00:04:55.211Z,1006.15
2017-09-08T00:05:55.207Z,1006.11
2017-09-08T00:06:55.207Z,1006.07
2017-09-08T00:07:55.201Z,1006.06
2017-09-08T00:08:55.197Z,1006.11
2017-09-08T00:09:55.193Z,1006.04
2017-09-08T00:10:55.184Z,1006.04
2017-09-08T00:11:55.179Z,1006.00
2017-09-08T00:12:55.175Z,1006.00
2017-09-08T00:13:55.171Z,1006.00
2017-09-08T00:14:55.169Z,1005.94
2017-09-08T00:15:55.164Z,1006.01
2017-09-08T00:16:55.163Z,1005.97
2017-09-08T00:17:55.156Z,1005.97
2017-09-08T00:18:55.150Z,1005.97
2017-09-08T00:19:55.146Z,1005.94
2017-09-08T00:20:55.143Z,1005.96
2017-09-08T00:21:55.137Z,1005.95
2017-09-08T00:22:55.128Z,1005.89
2017-09-08T00:23:55.125Z,1005.91
2017-09-08T00:24:55.126Z,1005.93
2017-09-08T00:25:55.116Z,1005.89
2017-09-08T00:26:55.110Z,1005.94
2017-09-08T00:27:55.106Z,1005.88
2017-09-08T00:28:55.101Z,1005.93
2017-09-08T00:29:55.097Z,1005.90
2017-09-08T00:30:55.097Z,1005.90
2017-09-08T00:31:55.092Z,1005.86
2017-09-08T00:32:55.087Z,1005.89
2017-09-08T00:33:55.083Z,1005.82
2017-09-08T00:34:55.078Z,1005.85
2017-09-08T00:35:55.074Z,1005.81
2017-09-08T00:36:55.069Z,1005.87
2017-09-08T00:37:55.066Z,1005.81
2017-09-08T00:38:55.055Z,1005.77
2017-09-08T00:39:55.051Z,1005.77
2017-09-08T00:40:55.048Z,1005.76
2017-09-08T00:41:55.042Z,1005.71
2017-09-08T00:42:55.037Z,1005.70
2017-09-08T00:43:55.033Z,1005.71
2017-09-08T00:44:55.034Z,1005.66
2017-09-08T00:45:55.026Z,1005.63
2017-09-08T00:46:55.023Z,1005.62
2017-09-08T00:47:55.019Z,1005.60
2017-09-08T00:48:55.015Z,1005.58
2017-09-08T00:49:55.016Z,1005.55
2017-09-08T00:50:55.005Z,1005.51
2017-09-08T00:51:55.001Z,1005.45
2017-09-08T00:52:54.997Z,1005.46
2017-09-08T00:53:54.993Z,1005.48
2017-09-08T00:54:54.984Z,1005.49
2017-09-08T00:55:54.982Z,1005.47
2017-09-08T00:56:54.974Z,1005.44
2017-09-08T00:57:54.970Z,1005.47
2017-09-08T00:58:54.965Z,1005.44
2017-09-08T00:59:54.960Z,1005.47
2017-09-08T01:00:54.957Z,1005.45
2017-09-08T01:01:54.952Z,1005.47
2017-09-08T01:02:54.951Z,1005.43
2017-09-08T01:03:54.947Z,1005.47
2017-09-08T01:04:54.975Z,1005.43
2017-09-08T01:05:54.938Z,1005.44
2017-09-08T01:06:54.934Z,1005.41
2017-09-08T01:07:54.930Z,1005.40
2017-09-08T01:08:54.929Z,1005.38
2017-09-08T01:09:54.920Z,1005.37
2017-09-08T01:10:54.912Z,1005.36
2017-09-08T01:11:54.908Z,1005.30
2017-09-08T01:12:54.903Z,1005.32
2017-09-08T01:13:54.904Z,1005.25
2017-09-08T01:14:54.897Z,1005.25
2017-09-08T01:15:54.893Z,1005.27
2017-09-08T01:16:54.889Z,1005.21
2017-09-08T01:17:54.885Z,1005.19
2017-09-08T01:18:54.874Z,1005.13
2017-09-08T01:19:54.872Z,1005.14
2017-09-08T01:20:54.866Z,1005.16
2017-09-08T01:21:54.862Z,1005.12
2017-09-08T01:22:54.857Z,1005.11
2017-09-08T01:23:54.852Z,1005.08
2017-09-08T01:24:54.851Z,1005.08
2017-09-08T01:25:54.844Z,1005.10
2017-09-08T01:26:54.842Z,1005.13
2017-09-08T01:27:54.844Z,1005.07
2017-09-08T01:28:54.836Z,1005.06
2017-09-08T01:29:54.830Z,1005.08
2017-09-08T01:30:54.828Z,1005.02
2017-09-08T01:31:54.822Z,1005.03
2017-09-08T01:32:54.816Z,1004.98
2017-09-08T01:33:54.812Z,1004.97
2017-09-08T01:34:54.803Z,1004.96
2017-09-08T01:35:54.797Z,1004.93
2017-09-08T01:36:54.794Z,1004.87
2017-09-08T01:37:54.789Z,1004.92
2017-09-08T01:38:54.782Z,1004.92
2017-09-08T01:39:54.778Z,1004.90
2017-09-08T01:40:54.778Z,1004.87
2017-09-08T01:41:54.771Z,1004.91
2017-09-08T01:42:54.769Z,1004.88
2017-09-08T01:43:54.764Z,1004.86
2017-09-08T01:44:54.761Z,1004.87
2017-09-08T01:45:54.756Z,1004.86
2017-09-08T01:46:54.751Z,1004.82
2017-09-08T01:47:54.745Z,1004.81
2017-09-08T01:48:54.740Z,1004.79
2017-09-08T01:49:54.738Z,1004.77
2017-09-08T01:50:54.728Z,1004.79
2017-09-08T01:51:54.726Z,1004.80
2017-09-08T01:52:54.719Z,1004.74
2017-09-08T01:53:54.715Z,1004.78
2017-09-08T01:54:54.710Z,1004.74
2017-09-08T01:55:54.705Z,1004.74
2017-09-08T01:56:54.702Z,1004.76
2017-09-08T01:57:54.717Z,1004.78
2017-09-08T01:58:54.693Z,1004.69
2017-09-08T01:59:54.702Z,1004.79
2017-09-08T02:00:54.685Z,1004.69
2017-09-08T02:01:54.681Z,1004.71
2017-09-08T02:02:54.675Z,1004.66
2017-09-08T02:03:54.670Z,1004.62
2017-09-08T02:04:54.667Z,1004.57
2017-09-08T02:05:54.661Z,1004.60
2017-09-08T02:06:54.653Z,1004.56
2017-09-08T02:07:54.647Z,1004.54
2017-09-08T02:08:54.643Z,1004.49
2017-09-08T02:09:54.640Z,1004.47
2017-09-08T02:10:54.634Z,1004.47
2017-09-08T02:11:54.629Z,1004.52
2017-09-08T02:12:54.624Z,1004.54
2017-09-08T02:13:54.620Z,1004.47
2017-09-08T02:14:54.619Z,1004.48
2017-09-08T02:15:54.616Z,1004.50
2017-09-08T02:16:54.609Z,1004.47
2017-09-08T02:17:54.605Z,1004.44
2017-09-08T02:18:54.600Z,1004.39
2017-09-08T02:19:54.596Z,1004.40
2017-09-08T02:20:54.591Z,1004.34
2017-09-08T02:21:54.586Z,1004.34
2017-09-08T02:22:54.579Z,1004.33
2017-09-08T02:23:54.574Z,1004.29
2017-09-08T02:24:54.569Z,1004.23
2017-09-08T02:25:54.564Z,1004.27
2017-09-08T02:26:54.560Z,1004.30
2017-09-08T02:27:54.554Z,1004.24
2017-09-08T02:28:54.551Z,1004.22
2017-09-08T02:29:54.545Z,1004.19
2017-09-08T02:30:54.545Z,1004.13
2017-09-08T02:31:54.540Z,1004.12
2017-09-08T02:32:54.536Z,1004.16
2017-09-08T02:33:54.533Z,1004.16
2017-09-08T02:34:54.526Z,1004.15
2017-09-08T02:35:54.523Z,1004.21
2017-09-08T02:36:54.519Z,1004.15
2017-09-08T02:37:54.512Z,1004.14
2017-09-08T02:38:54.502Z,1004.14
2017-09-08T02:39:54.498Z,1004.14
2017-09-08T02:40:54.494Z,1004.03
2017-09-08T02:41:54.489Z,1004.05
2017-09-08T02:42:54.486Z,1004.05
2017-09-08T02:43:54.482Z,1004.03
2017-09-08T02:44:54.475Z,1003.99
2017-09-08T02:45:54.472Z,1003.99
2017-09-08T02:46:54.470Z,1003.97
2017-09-08T02:47:54.466Z,1003.95
2017-09-08T02:48:54.461Z,1003.97
2017-09-08T02:49:54.457Z,1003.89
2017-09-08T02:50:54.451Z,1004.01
2017-09-08T02:51:54.446Z,1003.96
2017-09-08T02:52:54.442Z,1003.93
2017-09-08T02:53:54.440Z,1003.93
2017-09-08T02:54:54.428Z,1003.91
2017-09-08T02:55:54.424Z,1003.91
2017-09-08T02:56:54.420Z,1003.86
2017-09-08T02:57:54.415Z,1003.87
2017-09-08T02:58:54.411Z,1003.83
2017-09-08T02:59:54.406Z,1003.83
2017-09-08T03:00:54.401Z,1003.79
2017-09-08T03:01:54.396Z,1003.84
2017-09-08T03:02:54.395Z,1003.80
2017-09-08T03:03:54.391Z,1003.80
2017-09-08T03:04:54.386Z,1003.86
2017-09-08T03:05:54.381Z,1003.79
2017-09-08T03:06:54.377Z,1003.77
2017-09-08T03:07:54.371Z,1003.77
2017-09-08T03:08:54.369Z,1003.73
2017-09-08T03:09:54.365Z,1003.73
2017-09-08T03:10:54.353Z,1003.68
2017-09-08T03:11:54.349Z,1003.67
2017-09-08T03:12:54.345Z,1003.68
2017-09-08T03:13:54.341Z,1003.61
2017-09-08T03:14:54.334Z,1003.64
2017-09-08T03:15:54.330Z,1003.64
2017-09-08T03:16:54.327Z,1003.63
2017-09-08T03:17:54.321Z,1003.58
2017-09-08T03:18:54.319Z,1003.56
2017-09-08T03:19:54.317Z,1003.52
2017-09-08T03:20:54.310Z,1003.54
2017-09-08T03:21:54.307Z,1003.52
2017-09-08T03:22:54.297Z,1003.46
2017-09-08T03:23:54.292Z,1003.36
2017-09-08T03:24:54.289Z,1003.46
2017-09-08T03:25:54.283Z,1003.39
2017-09-08T03:26:54.282Z,1003.43
2017-09-08T03:27:54.280Z,1003.42
2017-09-08T03:28:54.273Z,1003.41
2017-09-08T03:29:54.268Z,1003.34
2017-09-08T03:30:54.264Z,1003.36
2017-09-08T03:31:54.259Z,1003.30
2017-09-08T03:32:54.254Z,1003.34
2017-09-08T03:33:54.250Z,1003.30
2017-09-08T03:34:54.240Z,1003.29
2017-09-08T03:35:54.237Z,1003.29
2017-09-08T03:36:54.231Z,1003.28
2017-09-08T03:37:54.228Z,1003.31
2017-09-08T03:38:54.221Z,1003.33
2017-09-08T03:39:54.218Z,1003.25
2017-09-08T03:40:54.212Z,1003.21
2017-09-08T03:41:54.208Z,1003.15
2017-09-08T03:42:54.207Z,1003.23
2017-09-08T03:43:54.219Z,1003.24
2017-09-08T03:44:54.197Z,1003.16
2017-09-08T03:45:54.193Z,1003.24
2017-09-08T03:46:54.187Z,1003.10
2017-09-08T03:47:54.192Z,1003.13
2017-09-08T03:48:54.177Z,1003.14
2017-09-08T03:49:54.175Z,1003.10
2017-09-08T03:50:54.164Z,1003.15
2017-09-08T03:51:54.162Z,1003.11
2017-09-08T03:52:54.155Z,1003.12
2017-09-08T03:53:54.153Z,1003.10
2017-09-08T03:54:54.145Z,1003.09
2017-09-08T03:55:54.142Z,1003.02
2017-09-08T03:56:54.137Z,1003.09
2017-09-08T03:57:54.134Z,1003.10
2017-09-08T03:58:54.131Z,1003.12
2017-09-08T03:59:54.126Z,1002.98
2017-09-08T04:00:54.121Z,1002.94
2017-09-08T04:01:54.117Z,1002.97
2017-09-08T04:02:54.111Z,1002.94
2017-09-08T04:03:54.108Z,1002.91
2017-09-08T04:04:54.102Z,1002.89
2017-09-08T04:05:54.098Z,1002.89
2017-09-08T04:06:54.089Z,1002.89
2017-09-08T04:07:54.083Z,1002.92
2017-09-08T04:08:54.080Z,1002.84
2017-09-08T04:09:54.075Z,1002.89
2017-09-08T04:10:54.069Z,1002.79
2017-09-08T04:11:54.065Z,1002.76
2017-09-08T04:12:54.061Z,1002.72
2017-09-08T04:13:54.056Z,1002.70
2017-09-08T04:14:54.059Z,1002.67
2017-09-08T04:15:54.051Z,1002.68
2017-09-08T04:16:54.046Z,1002.59
2017-09-08T04:17:54.043Z,1002.63
2017-09-08T04:18:54.035Z,1002.60
2017-09-08T04:19:54.030Z,1002.50
2017-09-08T04:20:54.026Z,1002.56
2017-09-08T04:21:54.021Z,1002.52
2017-09-08T04:22:54.012Z,1002.50
2017-09-08T04:23:54.007Z,1002.48
2017-09-08T04:24:54.003Z,1002.65
2017-09-08T04:25:54.005Z,1002.45
2017-09-08T04:26:53.998Z,1002.47
2017-09-08T04:27:53.992Z,1002.33
2017-09-08T04:28:53.987Z,1002.41
2017-09-08T04:29:53.984Z,1002.43
2017-09-08T04:30:53.975Z,1002.40
2017-09-08T04:31:53.970Z,1002.40
2017-09-08T04:32:53.965Z,1002.48
2017-09-08T04:33:53.961Z,1002.44
2017-09-08T04:34:53.955Z,1002.41
2017-09-08T04:35:53.950Z,1002.47
2017-09-08T04:36:53.945Z,1002.43
2017-09-08T04:37:53.942Z,1002.45
2017-09-08T04:38:53.940Z,1002.42
2017-09-08T04:39:53.935Z,1002.40
2017-09-08T04:40:53.930Z,1002.40
2017-09-08T04:41:53.927Z,1002.37
2017-09-08T04:42:53.922Z,1002.35
2017-09-08T04:43:53.916Z,1002.37
2017-09-08T04:44:53.913Z,1002.32
2017-09-08T04:45:53.907Z,1002.31
2017-09-08T04:46:53.897Z,1002.28
2017-09-08T04:47:53.894Z,1002.31
2017-09-08T04:48:53.887Z,1002.35
2017-09-08T04:49:53.883Z,1002.35
2017-09-08T04:50:53.879Z,1002.34
2017-09-08T04:51:53.873Z,1002.29
2017-09-08T04:52:53.868Z,1002.34
2017-09-08T04:53:53.870Z,1002.31
2017-09-08T04:54:53.863Z,1002.31
2017-09-08T04:55:53.859Z,1002.26
2017-09-08T04:56:53.853Z,1002.27
2017-09-08T04:57:53.850Z,1002.22
2017-09-08T04:58:53.844Z,1002.17
2017-09-08T04:59:53.839Z,1002.19
2017-09-08T05:00:53.834Z,1002.25
2017-09-08T05:01:53.830Z,1002.20
2017-09-08T05:02:53.820Z,1002.17
2017-09-08T05:03:53.816Z,1002.19
2017-09-08T05:04:53.811Z,1002.23
2017-09-08T05:05:53.808Z,1002.16
2017-09-08T05:06:53.802Z,1002.24
2017-09-08T05:07:53.797Z,1002.15
2017-09-08T05:08:53.792Z,1002.21
2017-09-08T05:09:53.808Z,1002.14
2017-09-08T05:10:53.786Z,1002.13
2017-09-08T05:11:53.783Z,1002.12
2017-09-08T05:12:53.778Z,1002.12
2017-09-08T05:13:53.773Z,1002.07
2017-09-08T05:14:53.767Z,1002.09
2017-09-08T05:15:53.762Z,1002.03
2017-09-08T05:16:53.758Z,1002.07
2017-09-08T05:17:53.754Z,1002.09
2017-09-08T05:18:53.743Z,1002.11
2017-09-08T05:19:53.739Z,1002.07
2017-09-08T05:20:53.734Z,1002.09
2017-09-08T05:21:53.730Z,1002.02
2017-09-08T05:22:53.725Z,1002.02
2017-09-08T05:23:53.720Z,1002.02
2017-09-08T05:24:53.736Z,1002.04
2017-09-08T05:25:53.711Z,1002.07
2017-09-08T05:26:53.710Z,1002.02
2017-09-08T05:27:53.704Z,1002.06
2017-09-08T05:28:53.701Z,1002.07
2017-09-08T05:29:53.695Z,1002.04
2017-09-08T05:30:53.685Z,1002.02
2017-09-08T05:31:53.682Z,1002.04
2017-09-08T05:32:53.676Z,1002.01
2017-09-08T05:33:53.673Z,1002.05
2017-09-08T05:34:53.671Z,1002.04
2017-09-08T05:35:53.668Z,1002.02
2017-09-08T05:36:53.661Z,1002.00
2017-09-08T05:37:53.657Z,1001.99
2017-09-08T05:38:53.651Z,1002.02
2017-09-08T05:39:53.646Z,1002.05
2017-09-08T05:40:53.642Z,1001.99
2017-09-08T05:41:53.637Z,1001.98
2017-09-08T05:42:53.627Z,1001.97
2017-09-08T05:43:53.622Z,1002.00
2017-09-08T05:44:53.619Z,1002.02
2017-09-08T05:45:53.612Z,1002.04
2017-09-08T05:46:53.608Z,1002.04
2017-09-08T05:47:53.602Z,1002.05
2017-09-08T05:48:53.621Z,1002.05
2017-09-08T05:49:53.593Z,1002.04
2017-09-08T05:50:53.592Z,1001.99
2017-09-08T05:51:53.588Z,1001.97
2017-09-08T05:52:53.582Z,1001.99
2017-09-08T05:53:53.579Z,1001.98
2017-09-08T05:54:53.572Z,1002.03
2017-09-08T05:55:53.567Z,1001.96
2017-09-08T05:56:53.563Z,1001.92
2017-09-08T05:57:53.558Z,1001.91
2017-09-08T05:58:53.548Z,1001.91
2017-09-08T05:59:53.543Z,1001.90
2017-09-08T06:00:53.539Z,1001.96
2017-09-08T06:01:53.534Z,1001.97
2017-09-08T06:02:53.530Z,1001.94
2017-09-08T06:03:53.524Z,1001.90
2017-09-08T06:04:53.521Z,1001.87
2017-09-08T06:05:53.514Z,1001.89
2017-09-08T06:06:53.513Z,1001.79
2017-09-08T06:07:53.509Z,1001.79
2017-09-08T06:08:53.504Z,1001.78
2017-09-08T06:09:53.500Z,1001.79
2017-09-08T06:10:53.496Z,1001.82
2017-09-08T06:11:53.490Z,1001.80
2017-09-08T06:12:53.487Z,1001.82
2017-09-08T06:13:53.480Z,1001.83
2017-09-08T06:14:53.471Z,1001.80
2017-09-08T06:15:53.467Z,1001.81
2017-09-08T06:16:53.462Z,1001.78
2017-09-08T06:17:53.457Z,1001.78
2017-09-08T06:18:53.458Z,1001.75
2017-09-08T06:19:53.447Z,1001.78
2017-09-08T06:20:53.443Z,1001.77
2017-09-08T06:21:53.439Z,1001.72
2017-09-08T06:22:53.437Z,1001.66
2017-09-08T06:23:53.432Z,1001.77
2017-09-08T06:24:53.434Z,1001.74
2017-09-08T06:25:53.424Z,1001.74
2017-09-08T06:26:53.419Z,1001.74
2017-09-08T06:27:53.415Z,1001.74
2017-09-08T06:28:53.409Z,1001.79
2017-09-08T06:29:53.410Z,1001.79
2017-09-08T06:30:53.396Z,1001.79
2017-09-08T06:31:53.391Z,1001.75
2017-09-08T06:32:53.387Z,1001.65
2017-09-08T06:33:53.384Z,1001.72
2017-09-08T06:34:53.377Z,1001.64
2017-09-08T06:35:53.374Z,1001.66
2017-09-08T06:36:53.369Z,1001.65
2017-09-08T06:37:53.368Z,1001.54
2017-09-08T06:38:53.363Z,1001.53
2017-09-08T06:39:53.359Z,1001.48
2017-09-08T06:40:53.354Z,1001.33
2017-09-08T06:41:53.350Z,1001.54
2017-09-08T06:42:53.345Z,1001.46
2017-09-08T06:43:53.344Z,1001.44
2017-09-08T06:44:53.337Z,1001.47
2017-09-08T06:45:53.333Z,1001.48
2017-09-08T06:46:53.324Z,1001.42
2017-09-08T06:47:53.318Z,1001.34
2017-09-08T06:48:53.315Z,1001.41
2017-09-08T06:49:53.311Z,1001.39
2017-09-08T06:50:53.305Z,1001.37
2017-09-08T06:51:53.300Z,1001.39
2017-09-08T06:52:53.297Z,1001.30
2017-09-08T06:53:53.294Z,1001.35
2017-09-08T06:54:53.290Z,1001.28
2017-09-08T06:55:53.287Z,1001.32
2017-09-08T06:56:53.282Z,1001.28
2017-09-08T06:57:53.278Z,1001.29
2017-09-08T06:58:53.273Z,1001.23
2017-09-08T06:59:53.269Z,1001.27
2017-09-08T07:00:53.266Z,1001.34
2017-09-08T07:01:53.260Z,1001.30
2017-09-08T07:02:53.252Z,1001.24
2017-09-08T07:03:53.246Z,1001.26
2017-09-08T07:04:53.242Z,1001.28
2017-09-08T07:05:53.240Z,1001.21
2017-09-08T07:06:53.233Z,1001.26
2017-09-08T07:07:53.229Z,1001.22
2017-09-08T07:08:53.224Z,1001.21
2017-09-08T07:09:53.219Z,1001.17
2017-09-08T07:10:53.223Z,1001.24
2017-09-08T07:11:53.215Z,1001.18
2017-09-08T07:12:53.210Z,1001.17
2017-09-08T07:13:53.208Z,1001.16
2017-09-08T07:14:53.201Z,1001.17
2017-09-08T07:15:53.197Z,1001.22
2017-09-08T07:16:53.192Z,1001.14
2017-09-08T07:17:53.188Z,1001.19
2017-09-08T07:18:53.178Z,1001.24
2017-09-08T07:19:53.176Z,1001.14
2017-09-08T07:20:53.171Z,1001.18
2017-09-08T07:21:53.166Z,1001.14
2017-09-08T07:22:53.161Z,1001.13
2017-09-08T07:23:53.157Z,1001.14
2017-09-08T07:24:53.153Z,1001.12
2017-09-08T07:25:53.151Z,1001.17
2017-09-08T07:26:53.149Z,1001.06
2017-09-08T07:27:53.144Z,1001.12
2017-09-08T07:28:53.141Z,1001.18
2017-09-08T07:29:53.136Z,1001.06
2017-09-08T07:30:53.133Z,1001.18
2017-09-08T07:31:53.128Z,1001.18
2017-09-08T07:32:53.123Z,1001.08
2017-09-08T07:33:53.121Z,1001.09
2017-09-08T07:34:53.111Z,1001.10
2017-09-08T07:35:53.106Z,1001.11
2017-09-08T07:36:53.102Z,1001.14
2017-09-08T07:37:53.099Z,1001.15
2017-09-08T07:38:53.097Z,1001.00
2017-09-08T07:39:53.095Z,1001.07
2017-09-08T07:40:53.089Z,1001.02
2017-09-08T07:41:53.085Z,1001.04
2017-09-08T07:42:53.077Z,1000.93
2017-09-08T07:43:53.072Z,1000.96
2017-09-08T07:44:53.068Z,1000.98
2017-09-08T07:45:53.065Z,1000.94
2017-09-08T07:46:53.060Z,1000.98
2017-09-08T07:47:53.056Z,1001.00
2017-09-08T07:48:53.052Z,1000.98
2017-09-08T07:49:53.050Z,1000.89
2017-09-08T07:50:53.047Z,1000.86
2017-09-08T07:51:53.043Z,1000.87
2017-09-08T07:52:53.040Z,1000.88
2017-09-08T07:53:53.034Z,1000.88
2017-09-08T07:54:53.031Z,1000.95
2017-09-08T07:55:53.026Z,1000.90
2017-09-08T07:56:53.047Z,1001.06
2017-09-08T07:57:53.018Z,1000.99
2017-09-08T07:58:53.009Z,1001.02
2017-09-08T07:59:53.006Z,1000.97
2017-09-08T08:00:53.000Z,1000.97
2017-09-08T08:01:52.997Z,1000.92
2017-09-08T08:02:52.991Z,1000.79
2017-09-08T08:03:52.988Z,1000.92
2017-09-08T08:04:52.985Z,1000.91
2017-09-08T08:05:52.980Z,1000.87
2017-09-08T08:06:52.979Z,1000.97
2017-09-08T08:07:52.976Z,1000.92
2017-09-08T08:08:52.973Z,1000.89
2017-09-08T08:09:52.968Z,1000.99
2017-09-08T08:10:52.963Z,1000.95
2017-09-08T08:11:52.959Z,1000.79
2017-09-08T08:12:52.956Z,1000.91
2017-09-08T08:13:52.950Z,1000.71
2017-09-08T08:14:52.942Z,1000.81
2017-09-08T08:15:52.937Z,1000.82
2017-09-08T08:16:52.934Z,1000.85
2017-09-08T08:17:52.932Z,1000.84
2017-09-08T08:18:52.926Z,1000.76
2017-09-08T08:19:52.921Z,1000.87
2017-09-08T08:20:52.917Z,1000.91
2017-09-08T08:21:52.913Z,1000.85
2017-09-08T08:22:52.913Z,1000.86
2017-09-08T08:23:52.908Z,1000.85
2017-09-08T08:24:52.907Z,1000.93
2017-09-08T08:25:52.907Z,1000.84
2017-09-08T08:26:52.901Z,1000.81
2017-09-08T08:27:52.897Z,1000.81
2017-09-08T08:28:52.888Z,1000.79
2017-09-08T08:29:52.884Z,1000.87
2017-09-08T08:30:52.874Z,1000.77
2017-09-08T08:31:52.870Z,1000.79
2017-09-08T08:32:52.866Z,1000.80
2017-09-08T08:33:52.862Z,1000.77
2017-09-08T08:34:52.856Z,1000.68
2017-09-08T08:35:52.853Z,1000.73
2017-09-08T08:36:52.848Z,1000.72
2017-09-08T08:37:52.844Z,1000.71
2017-09-08T08:38:52.844Z,1000.70
2017-09-08T08:39:52.839Z,1000.72
2017-09-08T08:40:52.835Z,1000.75
2017-09-08T08:41:52.831Z,1000.71
2017-09-08T08:42:52.826Z,1000.75
2017-09-08T08:43:52.817Z,1000.71
2017-09-08T08:44:52.814Z,1000.78
2017-09-08T08:45:52.808Z,1000.77
2017-09-08T08:46:52.808Z,1000.81
2017-09-08T08:47:52.805Z,1000.75
2017-09-08T08:48:52.800Z,1000.75
2017-09-08T08:49:52.796Z,1000.72
2017-09-08T08:50:52.791Z,1000.72
2017-09-08T08:51:52.787Z,1000.72
2017-09-08T08:52:52.782Z,1000.70
2017-09-08T08:53:52.779Z,1000.75
2017-09-08T08:54:52.769Z,1000.72
2017-09-08T08:55:52.765Z,1000.62
2017-09-08T08:56:52.761Z,1000.67
2017-09-08T08:57:52.758Z,1000.64
2017-09-08T08:58:52.752Z,1000.70
2017-09-08T08:59:52.750Z,1000.68
2017-09-08T09:00:52.750Z,1000.69
2017-09-08T09:01:52.741Z,1000.63
2017-09-08T09:02:52.741Z,1000.63
2017-09-08T09:03:52.737Z,1000.68
2017-09-08T09:04:52.732Z,1000.71
2017-09-08T09:05:52.731Z,1000.68
2017-09-08T09:06:52.723Z,1000.63
2017-09-08T09:07:52.720Z,1000.65
2017-09-08T09:08:52.716Z,1000.69
2017-09-08T09:09:52.713Z,1000.74
2017-09-08T09:10:52.704Z,1000.61
2017-09-08T09:11:52.701Z,1000.61
2017-09-08T09:12:52.696Z,1000.61
2017-09-08T09:13:52.692Z,1000.58
2017-09-08T09:14:52.688Z,1000.54
2017-09-08T09:15:52.686Z,1000.49
2017-09-08T09:16:52.680Z,1000.42
2017-09-08T09:17:52.679Z,1000.48
2017-09-08T09:18:52.675Z,1000.43
2017-09-08T09:19:52.672Z,1000.44
2017-09-08T09:20:52.670Z,1000.44
2017-09-08T09:21:52.665Z,1000.45
2017-09-08T09:22:52.660Z,1000.45
2017-09-08T09:23:52.658Z,1000.46
2017-09-08T09:24:52.653Z,1000.53
2017-09-08T09:25:52.649Z,1000.50
2017-09-08T09:26:52.643Z,1000.47
2017-09-08T09:27:52.637Z,1000.50
2017-09-08T09:28:52.635Z,1000.46
2017-09-08T09:29:52.630Z,1000.49
2017-09-08T09:30:52.625Z,1000.41
2017-09-08T09:31:52.622Z,1000.43
2017-09-08T09:32:52.620Z,1000.37
2017-09-08T09:33:52.614Z,1000.40
2017-09-08T09:34:52.616Z,1000.39
2017-09-08T09:35:52.611Z,1000.43
2017-09-08T09:36:52.608Z,1000.36
2017-09-08T09:37:52.605Z,1000.37
2017-09-08T09:38:52.601Z,1000.49
2017-09-08T09:39:52.596Z,1000.38
2017-09-08T09:40:52.594Z,1000.38
2017-09-08T09:41:52.590Z,1000.35
2017-09-08T09:42:52.581Z,1000.34
2017-09-08T09:43:52.579Z,1000.41
2017-09-08T09:44:52.580Z,1000.33
2017-09-08T09:45:52.570Z,1000.42
2017-09-08T09:46:52.572Z,1000.23
2017-09-08T09:47:52.567Z,1000.33
2017-09-08T09:48:52.563Z,1000.23
2017-09-08T09:49:52.562Z,1000.33
2017-09-08T09:50:52.552Z,1000.22
2017-09-08T09:51:52.550Z,1000.34
2017-09-08T09:52:52.544Z,1000.25
2017-09-08T09:53:52.542Z,1000.25
2017-09-08T09:54:52.537Z,1000.07
2017-09-08T09:55:52.532Z,1000.36
2017-09-08T09:56:52.532Z,1000.21
2017-09-08T09:57:52.529Z,1000.30
2017-09-08T09:58:52.525Z,1000.21
2017-09-08T09:59:52.522Z,1000.17
2017-09-08T10:00:52.517Z,1000.15
2017-09-08T10:01:52.514Z,1000.14
2017-09-08T10:02:52.510Z,1000.14
2017-09-08T10:03:52.507Z,1000.14
2017-09-08T10:04:52.504Z,1000.16
2017-09-08T10:05:52.502Z,1000.14
2017-09-08T10:06:52.496Z,1000.11
2017-09-08T10:07:52.487Z,1000.13
2017-09-08T10:08:52.487Z,1000.10
2017-09-08T10:09:52.481Z,1000.06
2017-09-08T10:10:52.484Z,1000.13
2017-09-08T10:11:52.471Z,1000.07
2017-09-08T10:12:52.468Z,1000.01
2017-09-08T10:13:52.465Z,999.93
2017-09-08T10:14:52.464Z,1000.09
2017-09-08T10:15:52.466Z,1000.04
2017-09-08T10:16:52.458Z,1000.03
2017-09-08T10:17:52.454Z,1000.05
2017-09-08T10:18:52.457Z,999.94
2017-09-08T10:19:52.455Z,999.96
2017-09-08T10:20:52.450Z,999.96
2017-09-08T10:21:52.438Z,999.96
2017-09-08T10:22:52.429Z,1000.00
2017-09-08T10:23:52.431Z,1000.03
2017-09-08T10:24:52.456Z,999.92
2017-09-08T10:25:52.423Z,999.93
2017-09-08T10:26:52.415Z,999.94
2017-09-08T10:27:52.412Z,999.96
2017-09-08T10:28:52.407Z,1000.04
2017-09-08T10:29:52.406Z,999.92
2017-09-08T10:30:52.405Z,999.91
2017-09-08T10:31:52.400Z,999.91
2017-09-08T10:32:52.398Z,999.97
2017-09-08T10:33:52.393Z,999.87
2017-09-08T10:34:52.389Z,999.97
2017-09-08T10:35:52.385Z,999.97
2017-09-08T10:36:52.383Z,1000.03
2017-09-08T10:37:52.379Z,999.97
2017-09-08T10:38:52.373Z,1000.01
2017-09-08T10:39:52.366Z,999.96
2017-09-08T10:40:52.363Z,999.98
2017-09-08T10:41:52.362Z,1000.03
2017-09-08T10:42:52.356Z,1000.06
2017-09-08T10:43:52.352Z,1000.06
2017-09-08T10:44:52.348Z,1000.03
2017-09-08T10:45:52.344Z,1000.03
2017-09-08T10:46:52.344Z,1000.10
2017-09-08T10:47:52.341Z,1000.05
2017-09-08T10:48:52.337Z,1000.07
2017-09-08T10:49:52.338Z,1000.08
2017-09-08T10:50:52.326Z,1000.01
2017-09-08T10:51:52.322Z,1000.06
2017-09-08T10:52:52.317Z,1000.13
2017-09-08T10:53:52.314Z,1000.04
2017-09-08T10:54:52.313Z,1000.13
2017-09-08T10:55:52.311Z,1000.16
2017-09-08T10:56:52.305Z,1000.17
2017-09-08T10:57:52.302Z,1000.15
2017-09-08T10:58:52.299Z,1000.07
2017-09-08T10:59:52.297Z,1000.12
2017-09-08T11:00:52.290Z,1000.13
2017-09-08T11:01:52.286Z,1000.10
2017-09-08T11:02:52.277Z,1000.10
2017-09-08T11:03:52.275Z,1000.13
2017-09-08T11:04:52.269Z,1000.12
2017-09-08T11:05:52.266Z,1000.06
2017-09-08T11:06:52.260Z,1000.05
2017-09-08T11:07:52.257Z,1000.09
2017-09-08T11:08:52.255Z,1000.06
2017-09-08T11:09:52.248Z,1000.03
2017-09-08T11:10:52.248Z,1000.08
2017-09-08T11:11:52.246Z,1000.02
2017-09-08T11:12:52.240Z,1000.10
2017-09-08T11:13:52.237Z,1000.12
2017-09-08T11:14:52.231Z,1000.06
2017-09-08T11:15:52.229Z,1000.09
2017-09-08T11:16:52.223Z,1000.06
2017-09-08T11:17:52.219Z,1000.06
2017-09-08T11:18:52.215Z,1000.04
2017-09-08T11:19:52.204Z,1000.10
2017-09-08T11:20:52.202Z,1000.14
2017-09-08T11:21:52.196Z,1000.04
2017-09-08T11:22:52.191Z,1000.00
2017-09-08T11:23:52.186Z,1000.04
2017-09-08T11:24:52.183Z,1000.01
2017-09-08T11:25:52.179Z,1000.07
2017-09-08T11:26:52.177Z,1000.08
2017-09-08T11:27:52.172Z,1000.10
2017-09-08T11:28:52.169Z,1000.02
2017-09-08T11:29:52.163Z,1000.05
2017-09-08T11:30:52.158Z,1000.09
2017-09-08T11:31:52.154Z,1000.12
2017-09-08T11:32:52.149Z,1000.08
2017-09-08T11:33:52.144Z,1000.01
2017-09-08T11:34:52.135Z,999.98
2017-09-08T11:35:52.130Z,1000.03
2017-09-08T11:36:52.126Z,999.98
2017-09-08T11:37:52.122Z,1000.07
2017-09-08T11:38:52.117Z,1000.02
2017-09-08T11:39:52.110Z,1000.00
2017-09-08T11:40:52.107Z,1000.07
2017-09-08T11:41:52.101Z,999.99
2017-09-08T11:42:52.100Z,1000.05
2017-09-08T11:43:52.096Z,1000.01
2017-09-08T11:44:52.090Z,999.99
2017-09-08T11:45:52.087Z,999.97
2017-09-08T11:46:52.081Z,999.93
2017-09-08T11:47:52.075Z,999.93
2017-09-08T11:48:52.071Z,999.94
2017-09-08T11:49:52.065Z,999.97
2017-09-08T11:50:52.057Z,1000.00
2017-09-08T11:51:52.053Z,999.99
2017-09-08T11:52:52.046Z,999.99
2017-09-08T11:53:52.042Z,1000.02
2017-09-08T11:54:52.040Z,999.95
2017-09-08T11:55:52.034Z,999.97
2017-09-08T11:56:52.031Z,1000.00
2017-09-08T11:57:52.027Z,999.95
2017-09-08T11:58:52.015Z,999.96
2017-09-08T11:59:52.012Z,999.99
2017-09-08T12:00:52.006Z,999.96
2017-09-08T12:01:52.001Z,999.91
2017-09-08T12:02:51.995Z,999.92
2017-09-08T12:03:51.991Z,999.96
2017-09-08T12:04:51.987Z,999.94
2017-09-08T12:05:51.981Z,999.98
2017-09-08T12:06:51.979Z,999.93
2017-09-08T12:07:51.975Z,999.88